• Join FlightAware (Why Join?)
  • Login
  • US Flag 
11:29AM EDT


 

Airport Tracker/Info


-or-


 

Live Flight TrackerFlight Track Log ✈ FLG3872 ✈ 01-May-2013 ✈ KDTW - KFWA

Flight Track Log - Related Links

Times and Time Zones

All times are in EDT time to prevent confusion due to time zone crossing. See the FLG3872 flight status page for this flight to view local times or setup timezone preferences in your user account.

Time Position Orientation Groundspeed Altitude Reporting Facility
EDT Latitude Longitude Course Direction KTS MPH feet Rate Location/Type
08:13PM 42.2017 -83.3583 208° Southwest 156 180 1,200  Level Cleveland Center
08:14PM 42.1939 -83.4139 259° West 210 242 2,600 1,380 Climbing Cleveland Center
08:15PM 42.2000 -83.5011 275° West 250 288 3,900 780 Climbing Cleveland Center
08:16PM 41.9943 -83.6874 211° Southwest  Level Estimated
08:16PM 42.1811 -83.5956 255° West 271 312 4,300  Level Cleveland Center
08:17PM 41.9396 -83.7705 217° Southwest  Level Estimated
08:18PM 41.8849 -83.8535 208° Southwest  Level Estimated
08:18PM 42.0393 -83.7889 225° Southwest  Level Estimated
08:25PM 41.4947 -84.5194 225° Southwest  Level Estimated
08:26PM 41.4166 -84.6227 225° Southwest  Level Estimated
08:27PM 41.3383 -84.7258 225° Southwest  Level Estimated
08:28PM 41.2600 -84.8287 225° Southwest  Level Estimated
08:29PM 41.1815 -84.9313 225° Southwest  Level Estimated
08:29PM 41.3814 -84.6669 49° Northeast 372 428 9,900  Level Chicago Center
08:30PM 41.1030 -85.0336 225° Southwest  Level Estimated
08:30PM 41.3069 -84.7636 224° Southwest 373 429 9,900  Level Chicago Center
08:31PM 41.0244 -85.1357 224° Southwest  Level Estimated
08:31PM 41.2203 -84.8828 226° Southwest 372 428 9,900  Level Chicago Center
08:32PM 40.9785 -85.1952 224° Southwest  Level Estimated
08:32PM 41.1667 -84.9939 237° Southwest 355 409 9,900  Level Chicago Center
08:33PM 40.9785 -85.1952 49° Northeast  Level Estimated
08:33PM 41.1358 -85.0861 246° West 285 328 7,500  Level Chicago Center
08:34PM 40.9785 -85.1952 49° Northeast  Level Estimated
08:34PM 41.1219 -85.1856 260° West 283 326 4,900  Level Chicago Center
08:35PM 41.0836 -85.2539 233° Southwest 257 296 3,400 -1,500 Descending Chicago Center